Time;durP1;ratioP1;P1;durP2;ratioP2;P2;SDS_P1;SDS_P2;PMS_P1;PMS_P2;Temp;Humidity;BMP_temperature;BMP_pressure;BME280_temperature;BME280_humidity;BME280_pressure;Samples;Min_cycle;Max_cycle;Signal;HPM_P1;HPM_P2
2024/02/01 00:00:28;;;;;;;0.80;0.80;;;;;;;6.30;89.11;99716.69;4976531;28;20045;-91
2024/02/01 00:02:54;;;;;;;0.80;0.80;;;;;;;6.43;89.03;99711.34;4943406;28;20062;-91
2024/02/01 00:05:19;;;;;;;0.80;0.80;;;;;;;6.38;88.25;99715.44;4962003;28;20035;-91
2024/02/01 00:07:45;;;;;;;0.80;0.80;;;;;;;6.28;88.85;99710.41;4990705;28;20035;-91
2024/02/01 00:10:12;;;;;;;0.90;0.90;;;;;;;6.26;88.98;99713.75;4985972;28;20492;-91
2024/02/01 00:12:38;;;;;;;0.80;0.80;;;;;;;6.34;89.14;99710.75;4959602;28;20151;-92
2024/02/01 00:15:05;;;;;;;0.70;0.70;;;;;;;6.34;88.49;99710.75;4973031;28;20073;-92
2024/02/01 00:17:30;;;;;;;0.80;0.80;;;;;;;6.29;88.65;99712.22;4977087;28;20187;-90
2024/02/01 00:19:57;;;;;;;0.70;0.70;;;;;;;6.29;88.77;99711.31;4980078;28;20067;-91
2024/02/01 00:22:23;;;;;;;0.80;0.80;;;;;;;6.28;88.91;99694.50;4975800;28;20022;-92
2024/02/01 00:24:49;;;;;;;0.70;0.70;;;;;;;6.27;88.75;99700.59;4965136;28;20038;-92
2024/02/01 00:27:15;;;;;;;0.70;0.70;;;;;;;6.23;88.92;99698.59;4980449;28;20026;-92
2024/02/01 00:29:41;;;;;;;0.80;0.80;;;;;;;6.24;88.88;99705.72;4983605;28;20114;-91
2024/02/01 00:32:06;;;;;;;0.70;0.70;;;;;;;6.14;89.26;99692.72;4988133;28;20038;-92
2024/02/01 00:34:33;;;;;;;0.70;0.70;;;;;;;6.12;89.81;99699.66;4979123;28;20030;-90
2024/02/01 00:36:58;;;;;;;0.75;0.75;;;;;;;6.19;89.71;99706.28;4976964;28;20038;-91
2024/02/01 00:39:23;;;;;;;0.80;0.80;;;;;;;6.21;89.68;99699.31;4974572;28;20026;-90
2024/02/01 00:41:50;;;;;;;0.70;0.70;;;;;;;6.18;89.48;99705.34;4977226;28;20481;-91
2024/02/01 00:44:16;;;;;;;0.80;0.80;;;;;;;6.24;89.67;99708.38;4978208;28;20054;-91
2024/02/01 00:46:42;;;;;;;0.80;0.80;;;;;;;6.17;89.32;99711.44;4959032;28;20092;-90
2024/02/01 00:49:07;;;;;;;0.70;0.70;;;;;;;6.12;89.88;99715.56;4982501;28;20488;-90
2024/02/01 00:51:33;;;;;;;0.80;0.80;;;;;;;6.19;89.64;99708.91;4964511;28;20034;-91
2024/02/01 00:53:58;;;;;;;0.80;0.80;;;;;;;6.18;89.65;99713.31;4975066;28;20433;-90
2024/02/01 00:56:24;;;;;;;0.75;0.75;;;;;;;6.19;89.32;99709.84;4956792;28;20125;-91
2024/02/01 00:58:49;;;;;;;0.80;0.80;;;;;;;6.24;89.40;99713.69;4994146;28;20113;-90
2024/02/01 01:01:14;;;;;;;0.80;0.80;;;;;;;6.29;89.13;99711.31;4964473;28;20121;-91
2024/02/01 01:03:40;;;;;;;0.80;0.80;;;;;;;6.29;88.92;99711.31;4959962;28;20023;-90
2024/02/01 01:06:07;;;;;;;0.80;0.80;;;;;;;6.33;88.72;99721.28;4980426;28;20064;-90
2024/02/01 01:08:32;;;;;;;0.70;0.70;;;;;;;6.26;88.97;99711.09;4959651;28;20042;-90
2024/02/01 01:10:58;;;;;;;0.80;0.80;;;;;;;6.28;89.12;99714.78;4968243;28;20034;-91
2024/02/01 01:13:24;;;;;;;0.73;0.73;;;;;;;6.28;88.82;99721.00;4973208;28;20047;-92
2024/02/01 01:15:49;;;;;;;0.80;0.80;;;;;;;6.72;87.73;99724.53;4983034;28;20022;-93
2024/02/01 01:18:15;;;;;;;0.70;0.70;;;;;;;7.05;85.81;99736.25;4977726;28;20037;-93
2024/02/01 01:20:40;;;;;;;0.80;0.80;;;;;;;7.34;84.70;99722.91;4989925;28;20038;-92
2024/02/01 01:23:06;;;;;;;0.70;0.70;;;;;;;7.58;83.82;99730.47;4980784;28;20031;-91
2024/02/01 01:25:31;;;;;;;0.70;0.70;;;;;;;7.85;82.45;99726.69;4976582;28;20046;-93
2024/02/01 01:27:57;;;;;;;0.80;0.80;;;;;;;7.91;82.22;99718.16;4980299;28;20041;-91
2024/02/01 01:30:22;;;;;;;0.70;0.70;;;;;;;8.06;81.91;99718.09;4963876;28;20122;-90
2024/02/01 01:32:48;;;;;;;0.80;0.80;;;;;;;8.08;81.63;99719.97;4980666;28;20043;-89
2024/02/01 01:35:13;;;;;;;0.80;0.80;;;;;;;8.01;82.13;99727.56;4981769;28;20048;-91
2024/02/01 01:37:39;;;;;;;0.80;0.80;;;;;;;8.03;81.41;99721.47;4983532;28;20084;-90
2024/02/01 01:40:05;;;;;;;0.80;0.80;;;;;;;8.09;81.79;99724.47;4978698;28;20035;-90
2024/02/01 01:42:30;;;;;;;0.80;0.80;;;;;;;8.05;81.65;99716.22;4962927;28;20073;-91
2024/02/01 01:44:56;;;;;;;0.77;0.77;;;;;;;8.01;81.87;99719.59;4984659;28;20050;-90
2024/02/01 01:47:25;;;;;;;0.73;0.73;;;;;;;7.96;81.99;99720.25;4962983;28;20042;-91
2024/02/01 01:49:50;;;;;;;0.77;0.77;;;;;;;7.93;82.05;99711.19;4971648;28;20042;-91
2024/02/01 01:52:16;;;;;;;0.80;0.80;;;;;;;7.96;81.79;99720.25;4978457;28;20061;-91
2024/02/01 01:54:41;;;;;;;0.80;0.80;;;;;;;8.02;81.36;99718.75;4959871;28;20500;-91
2024/02/01 01:57:08;;;;;;;0.80;0.80;;;;;;;8.08;80.76;99721.72;4977725;28;20030;-90
2024/02/01 01:59:34;;;;;;;0.80;0.80;;;;;;;8.04;80.82;99733.03;4979740;28;20019;-91
2024/02/01 02:02:00;;;;;;;0.90;0.90;;;;;;;8.08;79.83;99733.28;4968051;28;20040;-91
2024/02/01 02:04:26;;;;;;;0.73;0.73;;;;;;;8.08;78.73;99724.38;4978065;28;20034;-91
2024/02/01 02:06:55;;;;;;;0.65;0.65;;;;;;;8.15;78.66;99719.50;4972314;28;20038;-89
2024/02/01 02:09:24;;;;;;;0.77;0.77;;;;;;;8.24;78.19;99716.44;4971396;28;20086;-90
2024/02/01 02:11:50;;;;;;;0.75;0.75;;;;;;;8.17;78.12;99722.25;4975232;28;20031;-89
2024/02/01 02:14:16;;;;;;;0.80;0.80;;;;;;;8.14;78.10;99720.31;4956270;28;20034;-90
2024/02/01 02:16:42;;;;;;;0.80;0.80;;;;;;;8.16;77.67;99710.69;4965659;28;20030;-90
2024/02/01 02:19:11;;;;;;;0.80;0.80;;;;;;;8.09;77.76;99720.91;4960225;28;20073;-91
2024/02/01 02:21:44;;;;;;;0.90;0.90;;;;;;;8.11;77.74;99714.84;4965855;28;20118;-91
2024/02/01 02:24:10;;;;;;;0.80;0.80;;;;;;;8.06;77.78;99707.47;4984025;28;20045;-92
2024/02/01 02:26:35;;;;;;;0.80;0.80;;;;;;;8.01;77.71;99712.53;4974875;28;20023;-90
2024/02/01 02:29:03;;;;;;;0.82;0.82;;;;;;;8.09;76.93;99710.25;4963313;28;20038;-90
2024/02/01 02:31:28;;;;;;;0.80;0.80;;;;;;;8.03;77.59;99704.63;4970178;28;20058;-91
2024/02/01 02:33:54;;;;;;;0.80;0.80;;;;;;;7.97;77.98;99714.09;4995343;28;20121;-92
2024/02/01 02:36:19;;;;;;;0.80;0.80;;;;;;;8.04;77.80;99715.31;4992513;28;20035;-91
2024/02/01 02:38:45;;;;;;;0.75;0.75;;;;;;;8.06;77.38;99723.41;4958471;28;20138;-91
2024/02/01 02:41:10;;;;;;;0.73;0.73;;;;;;;8.10;76.79;99710.38;4980737;28;20680;-92
2024/02/01 02:43:37;;;;;;;0.80;0.80;;;;;;;8.04;77.42;99698.47;4969057;28;20037;-91
2024/02/01 02:46:02;;;;;;;0.90;0.90;;;;;;;7.85;77.74;99697.47;4968446;28;20035;-91
2024/02/01 02:48:28;;;;;;;0.80;0.80;;;;;;;7.80;78.50;99698.94;4981649;28;20035;-92
2024/02/01 02:50:53;;;;;;;0.75;0.75;;;;;;;7.83;78.31;99695.56;4981761;28;20035;-91
2024/02/01 02:53:19;;;;;;;0.80;0.80;;;;;;;7.90;78.11;99703.94;4980555;28;20045;-91
2024/02/01 02:55:44;;;;;;;0.90;0.90;;;;;;;7.88;78.53;99697.63;4990275;28;20045;-90
2024/02/01 02:58:10;;;;;;;0.80;0.80;;;;;;;7.91;78.47;99697.81;4985599;28;20035;-91
2024/02/01 03:00:35;;;;;;;0.80;0.80;;;;;;;7.84;78.95;99703.59;4984838;28;20035;-90
2024/02/01 03:03:01;;;;;;;0.80;0.80;;;;;;;7.68;79.45;99703.59;4987592;28;20042;-90
2024/02/01 03:05:26;;;;;;;0.80;0.80;;;;;;;7.58;79.88;99714.53;4988060;28;20099;-92
2024/02/01 03:07:53;;;;;;;0.80;0.80;;;;;;;7.50;80.21;99711.44;4982115;28;20045;-90
2024/02/01 03:10:19;;;;;;;;;;;;;;;7.40;80.55;99704.69;4967425;28;20481;-90
2024/02/01 03:12:45;;;;;;;0.90;0.90;;;;;;;7.33;80.82;99705.16;4980799;28;19929;-91
2024/02/01 03:15:10;;;;;;;0.90;0.90;;;;;;;7.11;81.60;99710.06;4977473;28;20082;-91
2024/02/01 03:17:37;;;;;;;0.82;0.82;;;;;;;7.20;81.62;99708.84;4985415;28;20026;-91
2024/02/01 03:20:17;;;;;;;0.90;0.90;;;;;;;7.29;81.22;99711.13;4977894;28;20042;-91
2024/02/01 03:22:45;;;;;;;0.80;0.80;;;;;;;7.21;81.37;99709.75;4980460;28;20086;-90
2024/02/01 03:25:10;;;;;;;0.70;0.70;;;;;;;7.20;81.38;99695.56;4962016;28;20068;-90
2024/02/01 03:27:36;;;;;;;0.70;0.70;;;;;;;7.40;80.53;99693.16;4971603;28;20061;-91
2024/02/01 03:30:01;;;;;;;0.77;0.77;;;;;;;7.38;80.55;99686.84;4976586;28;20035;-92
2024/02/01 03:32:29;;;;;;;0.70;0.70;;;;;;;7.48;80.47;99677.66;4960163;28;20038;-91
2024/02/01 03:34:57;;;;;;;0.80;0.80;;;;;;;7.34;80.87;99683.09;4977135;28;20085;-91
2024/02/01 03:37:24;;;;;;;0.88;0.88;;;;;;;7.34;80.60;99676.88;4983054;28;20054;-91
2024/02/01 03:39:49;;;;;;;0.80;0.80;;;;;;;7.53;79.95;99670.88;4991709;28;20034;-91
2024/02/01 03:42:15;;;;;;;0.70;0.70;;;;;;;7.50;79.82;99678.66;4961990;28;20061;-91
2024/02/01 03:44:41;;;;;;;0.80;0.80;;;;;;;7.59;79.18;99672.13;4961730;28;20078;-92
2024/02/01 03:47:09;;;;;;;0.70;0.70;;;;;;;7.49;79.74;99679.50;4964856;28;20034;-91
2024/02/01 03:49:39;;;;;;;0.77;0.77;;;;;;;7.42;80.18;99681.78;4985289;28;20047;-93
2024/02/01 03:52:08;;;;;;;0.70;0.70;;;;;;;7.54;79.50;99678.00;4994095;28;20059;-92
2024/02/01 03:54:35;;;;;;;0.70;0.70;;;;;;;7.55;79.35;99678.06;4997354;28;20042;-92
2024/02/01 03:57:01;;;;;;;0.80;0.80;;;;;;;7.56;78.78;99686.94;4981848;28;20138;-92
2024/02/01 03:59:27;;;;;;;0.70;0.70;;;;;;;7.58;78.64;99690.63;4980847;28;20061;-92
2024/02/01 04:01:52;;;;;;;0.70;0.70;;;;;;;7.59;78.81;99685.41;4983695;28;20073;-92
2024/02/01 04:04:18;;;;;;;0.70;0.70;;;;;;;7.77;77.06;99680.19;4985607;28;20019;-92
2024/02/01 04:06:45;;;;;;;0.73;0.73;;;;;;;7.71;77.80;99686.09;4990408;28;20054;-93
2024/02/01 04:09:10;;;;;;;0.80;0.80;;;;;;;7.74;77.42;99680.03;4986588;28;20042;-91
2024/02/01 04:11:36;;;;;;;0.80;0.80;;;;;;;7.81;77.41;99681.25;4964840;28;20046;-91
2024/02/01 04:14:01;;;;;;;0.80;0.80;;;;;;;7.80;77.05;99685.66;4981243;28;20118;-91
2024/02/01 04:16:27;;;;;;;0.80;0.80;;;;;;;7.80;77.07;99690.06;4960751;28;20043;-92
2024/02/01 04:18:55;;;;;;;0.70;0.70;;;;;;;7.74;77.00;99695.97;4977351;28;20035;-93
2024/02/01 04:21:21;;;;;;;0.70;0.70;;;;;;;7.66;77.49;99686.63;4985323;28;20026;-91
2024/02/01 04:23:46;;;;;;;0.70;0.70;;;;;;;7.57;78.16;99686.13;4978501;28;20448;-91
2024/02/01 04:26:15;;;;;;;0.80;0.80;;;;;;;7.58;78.06;99678.25;4974415;28;20039;-92
2024/02/01 04:28:44;;;;;;;0.70;0.70;;;;;;;7.40;79.15;99672.81;4978828;28;20035;-91
2024/02/01 04:31:10;;;;;;;0.70;0.70;;;;;;;7.34;80.02;99671.56;4971594;28;20045;-91
2024/02/01 04:33:40;;;;;;;0.70;0.70;;;;;;;7.14;81.03;99663.38;4977484;28;20117;-92
2024/02/01 04:36:09;;;;;;;0.70;0.70;;;;;;;7.03;82.81;99668.88;4976725;28;20043;-92
2024/02/01 04:38:39;;;;;;;0.70;0.70;;;;;;;6.92;83.04;99666.53;4974578;28;20019;-91
2024/02/01 04:41:05;;;;;;;0.70;0.70;;;;;;;7.03;82.49;99676.84;4986147;28;20047;-91
2024/02/01 04:43:31;;;;;;;0.80;0.80;;;;;;;7.04;82.42;99678.66;4955308;28;20143;-91
2024/02/01 04:45:56;;;;;;;0.80;0.80;;;;;;;7.10;82.25;99679.03;4975954;28;20098;-91
2024/02/01 04:48:22;;;;;;;0.80;0.80;;;;;;;7.07;82.48;99681.50;4955218;28;20063;-91
2024/02/01 04:50:49;;;;;;;0.80;0.80;;;;;;;6.98;82.94;99676.56;4976387;28;20035;-91
2024/02/01 04:53:15;;;;;;;0.70;0.70;;;;;;;6.93;82.88;99676.31;4952865;28;20499;-91
2024/02/01 04:55:40;;;;;;;0.80;0.80;;;;;;;6.86;83.39;99666.19;4974955;28;20125;-91
2024/02/01 04:58:06;;;;;;;0.77;0.77;;;;;;;6.78;84.50;99655.94;4972971;28;20035;-92
2024/02/01 05:00:31;;;;;;;0.70;0.70;;;;;;;6.72;84.72;99661.78;4974876;28;20038;-90
2024/02/01 05:02:57;;;;;;;0.80;0.80;;;;;;;6.68;85.25;99659.78;4975261;28;20489;-91
2024/02/01 05:05:23;;;;;;;0.80;0.80;;;;;;;6.65;85.03;99660.50;4971331;28;20034;-92
2024/02/01 05:07:49;;;;;;;0.80;0.80;;;;;;;6.60;85.67;99661.06;4969904;28;20563;-89
2024/02/01 05:10:14;;;;;;;0.73;0.73;;;;;;;6.64;85.30;99663.06;4972405;28;20576;-90
2024/02/01 05:12:40;;;;;;;0.73;0.73;;;;;;;6.68;85.37;99659.78;4975766;28;20113;-91
2024/02/01 05:15:07;;;;;;;0.70;0.70;;;;;;;6.74;85.12;99654.81;4959097;28;20126;-89
2024/02/01 05:17:34;;;;;;;0.80;0.80;;;;;;;6.77;85.28;99667.38;4956344;28;20031;-89
2024/02/01 05:19:59;;;;;;;0.80;0.80;;;;;;;6.68;85.49;99658.03;4971445;28;20754;-90
2024/02/01 05:22:26;;;;;;;0.73;0.73;;;;;;;6.67;86.40;99658.88;4971420;28;20149;-89
2024/02/01 05:24:52;;;;;;;0.80;0.80;;;;;;;6.62;86.60;99654.13;4972145;28;20035;-90
2024/02/01 05:27:20;;;;;;;0.80;0.80;;;;;;;6.56;87.25;99649.34;4976707;28;20657;-90
2024/02/01 05:29:49;;;;;;;0.70;0.70;;;;;;;6.51;87.46;99641.94;4973678;28;20039;-90
2024/02/01 05:32:18;;;;;;;0.80;0.80;;;;;;;6.38;88.41;99635.94;4973420;28;20046;-89
2024/02/01 05:34:47;;;;;;;0.70;0.70;;;;;;;6.31;89.01;99646.06;4978044;28;20481;-89
2024/02/01 05:37:13;;;;;;;0.80;0.80;;;;;;;6.28;88.92;99641.50;4977144;28;20046;-90
2024/02/01 05:39:44;;;;;;;0.80;0.80;;;;;;;6.24;89.40;99644.78;4979902;28;20035;-90
2024/02/01 05:42:13;;;;;;;0.80;0.80;;;;;;;6.28;89.45;99633.56;4944801;28;20440;-89
2024/02/01 05:44:39;;;;;;;0.80;0.80;;;;;;;6.29;89.31;99631.81;4977237;28;20090;-89
2024/02/01 05:47:05;;;;;;;0.80;0.80;;;;;;;6.28;89.89;99636.19;4979868;28;20054;-90
2024/02/01 05:49:33;;;;;;;0.80;0.80;;;;;;;6.21;90.67;99643.66;4973356;28;20039;-90
2024/02/01 05:52:06;;;;;;;0.80;0.80;;;;;;;6.23;90.43;99645.59;4974696;28;20156;-91
2024/02/01 05:54:32;;;;;;;0.80;0.80;;;;;;;6.25;90.65;99646.59;4972720;28;20034;-89
2024/02/01 05:56:58;;;;;;;0.82;0.82;;;;;;;6.28;90.49;99654.75;4981421;28;20057;-91
2024/02/01 05:59:24;;;;;;;0.80;0.80;;;;;;;6.24;90.93;99665.06;4965935;28;20477;-91
2024/02/01 06:01:50;;;;;;;0.80;0.80;;;;;;;6.32;90.56;99664.69;4979517;28;20396;-92
2024/02/01 06:04:16;;;;;;;0.75;0.75;;;;;;;6.29;91.17;99674.22;4961472;28;20034;-91
2024/02/01 06:06:46;;;;;;;0.90;0.90;;;;;;;6.22;90.82;99670.25;4962654;28;20050;-91
2024/02/01 06:09:12;;;;;;;0.75;0.75;;;;;;;6.17;91.29;99679.66;4980140;28;20046;-91
2024/02/01 06:11:46;;;;;;;0.82;0.82;;;;;;;6.20;91.79;99682.50;4981910;28;20089;-91
2024/02/01 06:14:14;;;;;;;0.90;0.90;;;;;;;6.16;92.24;99680.47;4977286;28;20485;-91
2024/02/01 06:16:40;;;;;;;0.80;0.80;;;;;;;6.35;91.83;99680.78;4976462;28;20038;-92
2024/02/01 06:19:06;;;;;;;0.80;0.80;;;;;;;6.28;92.02;99670.66;4978438;28;20038;-92
2024/02/01 06:21:31;;;;;;;0.80;0.80;;;;;;;6.15;92.71;99679.56;4974776;28;20037;-91
2024/02/01 06:23:58;;;;;;;0.80;0.80;;;;;;;6.22;92.89;99678.19;4959248;28;20138;-91
2024/02/01 06:26:27;;;;;;;0.80;0.80;;;;;;;6.46;92.67;99691.13;4976249;28;20548;-92
2024/02/01 06:28:59;;;;;;;0.80;0.80;;;;;;;6.25;93.22;99673.09;4981001;28;20481;-93
2024/02/01 06:31:26;;;;;;;0.80;0.80;;;;;;;6.20;93.53;99682.50;4980690;28;20038;-92
2024/02/01 06:33:52;;;;;;;0.82;0.82;;;;;;;6.18;94.38;99678.88;4977155;28;20026;-92
2024/02/01 06:36:19;;;;;;;0.80;0.80;;;;;;;6.16;94.37;99677.84;4999717;28;20034;-92
2024/02/01 06:41:46;;;;;;;0.90;0.90;;;;;;;6.15;95.36;99689.25;4978269;28;20034;-92
2024/02/01 06:44:21;;;;;;;0.90;0.90;;;;;;;6.11;95.29;99697.84;4950133;28;20032;-93
2024/02/01 06:58:03;;;;;;;0.82;0.82;;;;;;;6.01;97.52;99711.31;4974819;28;20042;-92
2024/02/01 07:03:21;;;;;;;0.70;0.70;;;;;;;6.04;97.64;99706.22;4979097;28;20537;-92
2024/02/01 07:16:24;;;;;;;0.70;0.70;;;;;;;5.95;98.52;99689.75;4975398;28;20065;-92
2024/02/01 07:24:38;;;;;;;0.87;0.87;;;;;;;5.95;98.71;99684.47;4982731;28;20046;-90
2024/02/01 08:00:04;;;;;;;0.80;0.80;;;;;;;6.19;98.32;99714.22;4983202;28;20058;-91
2024/02/01 08:03:00;;;;;;;0.80;0.80;;;;;;;6.15;98.52;99719.31;4991543;28;20489;-91
2024/02/01 08:08:15;;;;;;;0.80;0.80;;;;;;;6.24;98.89;99716.31;4980863;28;20046;-91
2024/02/01 08:10:41;;;;;;;0.80;0.80;;;;;;;6.29;98.44;99714.88;4981219;28;20114;-91
2024/02/01 08:13:07;;;;;;;0.80;0.80;;;;;;;6.40;98.40;99721.75;4984931;28;20187;-91
2024/02/01 08:15:41;;;;;;;0.80;0.80;;;;;;;6.37;98.05;99726.88;4981051;28;20062;-90
2024/02/01 08:18:12;;;;;;;0.80;0.80;;;;;;;6.17;98.41;99730.00;4979618;28;20038;-91
2024/02/01 08:20:39;;;;;;;0.80;0.80;;;;;;;6.11;99.24;99721.69;4990598;28;20114;-91
2024/02/01 08:23:05;;;;;;;0.80;0.80;;;;;;;6.10;99.15;99718.13;4980297;28;20039;-91
2024/02/01 08:25:32;;;;;;;0.98;0.98;;;;;;;6.16;99.15;99723.78;4976913;28;20057;-91
2024/02/01 08:27:59;;;;;;;0.93;0.93;;;;;;;6.13;99.40;99730.63;4983048;28;20042;-91
2024/02/01 08:30:27;;;;;;;0.90;0.90;;;;;;;6.15;99.55;99724.63;4983492;28;20098;-91
2024/02/01 08:32:57;;;;;;;;;;;;;;;6.20;99.62;99730.19;4986818;28;20041;-88
2024/02/01 08:35:24;;;;;;;0.80;0.80;;;;;;;6.21;99.75;99734.69;4962526;28;19914;-90
2024/02/01 08:37:51;;;;;;;0.80;0.80;;;;;;;6.29;99.44;99735.16;4981239;28;20188;-90
2024/02/01 08:40:16;;;;;;;0.90;0.90;;;;;;;6.36;98.96;99740.91;4980193;28;20057;-90
2024/02/01 08:42:46;;;;;;;0.90;0.90;;;;;;;6.43;98.96;99748.44;4978162;28;20031;-90
2024/02/01 08:45:13;;;;;;;0.90;0.90;;;;;;;6.57;98.72;99743.09;4975561;28;20061;-90
2024/02/01 08:47:44;;;;;;;0.90;0.90;;;;;;;6.56;98.04;99750.09;4962345;28;20038;-91
2024/02/01 08:50:10;;;;;;;0.80;0.80;;;;;;;6.54;98.02;99754.41;4978202;28;20047;-92
2024/02/01 08:52:46;;;;;;;0.80;0.80;;;;;;;6.60;98.40;99761.81;4978988;28;20094;-91
2024/02/01 08:55:14;;;;;;;0.70;0.70;;;;;;;6.67;97.92;99764.94;4975865;28;20043;-91
2024/02/01 08:57:46;;;;;;;0.70;0.70;;;;;;;6.80;97.44;99766.56;4974509;28;20027;-90
2024/02/01 09:00:26;;;;;;;0.80;0.80;;;;;;;6.89;96.90;99761.81;4975464;28;20109;-90
2024/02/01 09:05:47;;;;;;;0.90;0.90;;;;;;;7.03;95.58;99767.97;4971943;28;20489;-90
2024/02/01 09:08:36;;;;;;;0.80;0.80;;;;;;;7.12;95.21;99765.84;4960472;28;20038;-90
2024/02/01 09:11:14;;;;;;;0.80;0.80;;;;;;;7.15;94.34;99759.84;4978503;28;20039;-90
2024/02/01 09:13:45;;;;;;;0.80;0.80;;;;;;;7.08;94.14;99768.25;4981935;28;20122;-91
2024/02/01 09:16:13;;;;;;;0.80;0.80;;;;;;;7.11;94.28;99771.09;4977641;28;20042;-91
2024/02/01 09:18:39;;;;;;;0.80;0.80;;;;;;;6.97;94.81;99772.91;4983541;28;20045;-91
2024/02/01 09:21:05;;;;;;;0.80;0.80;;;;;;;6.96;95.00;99778.13;4974414;28;20031;-91
2024/02/01 09:23:30;;;;;;;0.80;0.80;;;;;;;7.09;95.05;99781.63;4982314;28;20026;-91
2024/02/01 09:25:56;;;;;;;0.80;0.80;;;;;;;7.17;94.52;99775.00;4978583;28;20039;-91
2024/02/01 09:28:21;;;;;;;0.80;0.80;;;;;;;7.31;93.71;99767.84;4964803;28;20098;-91
2024/02/01 09:30:48;;;;;;;0.80;0.80;;;;;;;7.55;93.72;99767.47;4979812;28;20031;-91
2024/02/01 09:33:28;;;;;;;0.70;0.70;;;;;;;7.68;92.57;99773.56;4978835;28;20111;-91
2024/02/01 09:35:58;;;;;;;0.80;0.80;;;;;;;7.80;91.97;99765.34;4982386;28;20034;-91
2024/02/01 09:38:24;;;;;;;0.77;0.77;;;;;;;7.75;91.49;99769.50;4977893;28;20129;-92
2024/02/01 09:40:49;;;;;;;0.75;0.75;;;;;;;7.80;91.67;99768.00;4984223;28;20026;-91
2024/02/01 09:43:22;;;;;;;0.80;0.80;;;;;;;7.80;90.71;99770.66;4981785;28;20041;-92
2024/02/01 09:45:52;;;;;;;0.80;0.80;;;;;;;7.82;91.26;99770.78;4978631;28;20035;-91
2024/02/01 09:48:19;;;;;;;0.70;0.70;;;;;;;7.64;91.43;99782.19;5000737;28;20057;-91
2024/02/01 09:50:55;;;;;;;0.90;0.90;;;;;;;7.74;91.11;99780.97;4984720;28;20102;-91
2024/02/01 09:53:26;;;;;;;0.80;0.80;;;;;;;7.85;90.69;99785.13;4982217;28;20065;-91
2024/02/01 09:55:54;;;;;;;0.70;0.70;;;;;;;7.80;91.71;99780.38;4980154;28;20120;-91
2024/02/01 09:58:21;;;;;;;0.85;0.85;;;;;;;7.83;91.62;99781.47;4992898;28;20126;-91
2024/02/01 10:00:47;;;;;;;0.80;0.80;;;;;;;7.81;91.71;99788.47;4986703;28;20110;-91
2024/02/01 10:03:14;;;;;;;0.80;0.80;;;;;;;7.82;92.22;99790.28;4980552;28;20354;-93
2024/02/01 10:05:43;;;;;;;0.80;0.80;;;;;;;7.80;91.75;99791.00;4986372;28;20034;-93
2024/02/01 10:08:10;;;;;;;0.80;0.80;;;;;;;7.89;91.41;99791.53;4973254;28;20159;-92
2024/02/01 10:10:38;;;;;;;0.80;0.80;;;;;;;7.76;91.86;99789.94;4975370;28;20062;-92
2024/02/01 10:13:06;;;;;;;0.80;0.80;;;;;;;7.60;91.76;99792.53;4979498;28;20038;-92
2024/02/01 10:15:33;;;;;;;0.70;0.70;;;;;;;7.70;91.80;99810.81;4971918;28;20038;-91
2024/02/01 10:17:59;;;;;;;0.80;0.80;;;;;;;7.64;92.21;99800.78;4982191;28;20031;-92
2024/02/01 10:20:34;;;;;;;0.80;0.80;;;;;;;7.50;93.44;99796.41;4983241;28;20037;-92
2024/02/01 10:23:03;;;;;;;0.90;0.90;;;;;;;7.50;93.88;99799.06;4950664;28;20035;-92
2024/02/01 10:25:38;;;;;;;0.80;0.80;;;;;;;7.65;93.75;99791.06;4985542;28;20049;-92
2024/02/01 10:28:07;;;;;;;0.80;0.80;;;;;;;7.79;92.82;99790.09;4980182;28;20035;-92
2024/02/01 10:30:37;;;;;;;0.80;0.80;;;;;;;7.73;92.57;99795.06;4985645;28;20622;-90
2024/02/01 10:33:06;;;;;;;0.80;0.80;;;;;;;7.76;92.83;99794.31;4968004;28;20038;-90
2024/02/01 10:35:34;;;;;;;0.80;0.80;;;;;;;7.77;93.55;99794.44;4981386;28;20068;-92
2024/02/01 10:38:01;;;;;;;0.77;0.77;;;;;;;7.66;93.33;99791.13;4963348;28;20038;-91
2024/02/01 10:40:39;;;;;;;;;;;;;;;7.59;93.78;99782.75;4984513;28;20176;-91
2024/02/01 10:43:05;;;;;;;0.80;0.80;;;;;;;7.53;93.95;99785.06;4993111;28;19929;-91
2024/02/01 10:45:37;;;;;;;0.70;0.70;;;;;;;7.50;94.31;99785.78;4980983;28;20038;-92
2024/02/01 10:48:10;;;;;;;0.80;0.80;;;;;;;7.55;94.94;99779.00;4971612;28;20039;-92
2024/02/01 10:50:39;;;;;;;0.80;0.80;;;;;;;7.48;95.16;99774.16;4970711;28;20123;-92
2024/02/01 10:53:11;;;;;;;0.80;0.80;;;;;;;7.51;95.06;99781.38;4993031;28;20047;-91
2024/02/01 10:55:40;;;;;;;0.77;0.77;;;;;;;7.51;95.57;99774.31;4983769;28;20026;-92
2024/02/01 10:58:13;;;;;;;0.90;0.90;;;;;;;7.53;94.96;99774.44;4976231;28;20086;-91
2024/02/01 11:00:44;;;;;;;0.80;0.80;;;;;;;7.66;94.73;99766.31;4971383;28;20537;-92
2024/02/01 11:03:11;;;;;;;0.80;0.80;;;;;;;7.73;94.28;99768.50;4973063;28;20042;-91
2024/02/01 11:05:37;;;;;;;0.80;0.80;;;;;;;7.71;94.08;99764.84;4976160;28;20076;-91
2024/02/01 11:08:03;;;;;;;0.80;0.80;;;;;;;7.70;94.26;99753.31;4982822;28;20047;-90
2024/02/01 11:10:28;;;;;;;0.90;0.90;;;;;;;7.73;94.42;99765.84;4984900;28;20150;-91
2024/02/01 11:12:55;;;;;;;0.80;0.80;;;;;;;7.79;94.02;99763.53;4978062;28;20070;-91
2024/02/01 11:15:25;;;;;;;0.93;0.93;;;;;;;7.76;93.88;99762.44;4979509;28;20401;-91
2024/02/01 11:17:51;;;;;;;0.90;0.90;;;;;;;7.77;93.87;99762.56;4984087;28;20504;-90
2024/02/01 11:20:25;;;;;;;0.85;0.85;;;;;;;7.83;93.39;99754.00;4978587;28;20043;-91
2024/02/01 11:22:58;;;;;;;0.80;0.80;;;;;;;7.90;93.37;99756.16;4965120;28;20718;-92
2024/02/01 11:25:28;;;;;;;0.80;0.80;;;;;;;7.97;93.21;99756.59;4984206;28;20035;-89
2024/02/01 11:27:53;;;;;;;0.80;0.80;;;;;;;7.85;93.24;99763.88;4977249;28;20117;-91
2024/02/01 11:30:31;;;;;;;0.80;0.80;;;;;;;7.91;93.20;99758.94;4983924;28;20106;-90
2024/02/01 11:32:57;;;;;;;0.90;0.90;;;;;;;7.85;92.98;99750.59;4976551;28;20047;-90
2024/02/01 11:35:23;;;;;;;0.80;0.80;;;;;;;7.94;92.88;99753.75;4974249;28;20045;-91
2024/02/01 11:38:06;;;;;;;0.80;0.80;;;;;;;8.02;92.97;99754.19;4979089;28;20035;-90
2024/02/01 11:40:32;;;;;;;0.90;0.90;;;;;;;8.16;92.30;99755.88;4993340;28;20409;-93
2024/02/01 11:42:59;;;;;;;0.80;0.80;;;;;;;8.21;91.67;99754.38;4975667;28;20488;-92
2024/02/01 11:45:28;;;;;;;0.80;0.80;;;;;;;8.18;92.08;99755.94;4959323;28;20035;-91
2024/02/01 11:47:54;;;;;;;0.70;0.70;;;;;;;8.10;91.79;99754.66;4995709;28;20360;-90
2024/02/01 11:50:23;;;;;;;0.80;0.80;;;;;;;8.13;92.02;99757.44;4975976;28;20031;-91
2024/02/01 11:52:58;;;;;;;0.73;0.73;;;;;;;8.06;91.96;99757.97;4978785;28;20039;-91
2024/02/01 11:55:27;;;;;;;0.80;0.80;;;;;;;8.05;92.35;99756.09;4976727;28;20094;-91
2024/02/01 11:57:56;;;;;;;0.80;0.80;;;;;;;8.03;92.39;99757.78;4974802;28;20035;-91
2024/02/01 12:00:23;;;;;;;0.80;0.80;;;;;;;8.08;92.69;99751.88;4977913;28;20042;-92
2024/02/01 12:02:48;;;;;;;0.80;0.80;;;;;;;7.97;92.50;99758.34;4967996;28;20054;-91
2024/02/01 12:05:19;;;;;;;0.80;0.80;;;;;;;8.10;92.19;99754.66;4969692;28;20058;-91
2024/02/01 12:07:44;;;;;;;0.80;0.80;;;;;;;8.09;92.26;99750.13;4986340;28;20050;-92
2024/02/01 12:10:12;;;;;;;0.80;0.80;;;;;;;8.03;91.93;99756.03;4961949;28;20081;-92
2024/02/01 12:12:40;;;;;;;0.80;0.80;;;;;;;8.04;91.85;99747.22;4965658;28;20035;-92
2024/02/01 12:15:07;;;;;;;0.90;0.90;;;;;;;8.02;91.80;99742.66;4990045;28;20879;-93
2024/02/01 12:17:42;;;;;;;;;;;;;;;7.96;92.65;99746.81;4985401;28;20034;-91
2024/02/01 12:20:13;;;;;;;0.80;0.80;;;;;;;7.98;91.87;99746.88;4975738;28;20020;-93
2024/02/01 12:22:40;;;;;;;0.70;0.70;;;;;;;8.05;91.94;99750.78;4966360;28;20027;-92
2024/02/01 12:25:12;;;;;;;0.90;0.90;;;;;;;8.06;91.82;99742.00;4989591;28;20026;-92
2024/02/01 12:27:45;;;;;;;0.90;0.90;;;;;;;8.02;92.50;99747.97;4986222;28;20031;-92
2024/02/01 12:30:14;;;;;;;0.80;0.80;;;;;;;8.09;92.24;99742.16;4997116;28;20038;-94
2024/02/01 12:32:46;;;;;;;0.80;0.80;;;;;;;8.03;92.85;99749.81;4980190;28;20023;-93
2024/02/01 12:35:12;;;;;;;0.75;0.75;;;;;;;8.08;91.89;99738.59;4979075;28;20030;-92
2024/02/01 12:37:41;;;;;;;0.80;0.80;;;;;;;8.03;91.87;99747.16;4996401;28;20042;-93
2024/02/01 12:40:13;;;;;;;0.70;0.70;;;;;;;8.11;91.92;99741.44;4985365;28;20062;-94
2024/02/01 12:42:41;;;;;;;0.70;0.70;;;;;;;8.05;92.00;99743.75;4972598;28;20058;-93
2024/02/01 12:45:20;;;;;;;0.70;0.70;;;;;;;7.97;92.36;99753.94;4991705;28;20046;-93
2024/02/01 12:47:52;;;;;;;0.90;0.90;;;;;;;7.97;92.49;99758.34;4973858;28;20065;-93
2024/02/01 12:50:20;;;;;;;0.80;0.80;;;;;;;8.02;92.83;99761.25;4978014;28;20082;-94
2024/02/01 12:52:45;;;;;;;0.80;0.80;;;;;;;8.07;92.41;99757.13;4978699;28;20039;-95
2024/02/01 12:55:20;;;;;;;0.80;0.80;;;;;;;8.16;92.12;99769.16;4978261;28;20485;-93
2024/02/01 12:57:48;;;;;;;0.90;0.90;;;;;;;8.13;92.25;99773.41;4985328;28;20034;-95